createdAt,value
2023-01-09T00:02:26.899Z,99210.88
2023-01-09T00:04:55.062Z,99220.38
2023-01-09T00:07:25.517Z,99221.56
2023-01-09T00:09:53.575Z,99235.91
2023-01-09T00:12:21.719Z,99227.84
2023-01-09T00:14:49.745Z,99221.06
2023-01-09T00:17:17.890Z,99225.59
2023-01-09T00:19:46.031Z,99229.50
2023-01-09T00:22:14.127Z,99228.31
2023-01-09T00:24:44.641Z,99226.75
2023-01-09T00:27:14.360Z,99220.69
2023-01-09T00:29:45.956Z,99224.34
2023-01-09T00:32:14.423Z,99234.72
2023-01-09T00:34:44.072Z,99224.81
2023-01-09T00:37:13.220Z,99220.88
2023-01-09T00:39:42.603Z,99228.50
2023-01-09T00:42:16.071Z,99216.38
2023-01-09T00:44:47.850Z,99219.34
2023-01-09T00:47:22.253Z,99235.00
2023-01-09T00:49:52.553Z,99240.78
2023-01-09T00:52:21.526Z,99231.06
2023-01-09T00:54:50.279Z,99238.16
2023-01-09T00:57:19.846Z,99245.50
2023-01-09T00:59:48.388Z,99243.59
2023-01-09T01:02:16.662Z,99252.22
2023-01-09T01:05:02.194Z,99251.53
2023-01-09T01:07:43.369Z,99249.22
2023-01-09T01:10:13.977Z,99250.50
2023-01-09T01:12:45.007Z,99246.97
2023-01-09T01:15:14.110Z,99254.91
2023-01-09T01:17:43.378Z,99257.94
2023-01-09T01:20:14.244Z,99253.78
2023-01-09T01:22:43.035Z,99266.50
2023-01-09T01:25:12.440Z,99263.25
2023-01-09T01:27:41.266Z,99262.25
2023-01-09T01:30:13.350Z,99255.47
2023-01-09T01:32:41.687Z,99261.03
2023-01-09T01:35:10.598Z,99264.88
2023-01-09T01:37:40.093Z,99265.72
2023-01-09T01:40:09.958Z,99268.94
2023-01-09T01:42:38.167Z,99274.50
2023-01-09T01:45:10.961Z,99265.72
2023-01-09T01:47:46.607Z,99273.66
2023-01-09T01:50:20.715Z,99280.22
2023-01-09T01:52:55.488Z,99282.84
2023-01-09T01:55:24.622Z,99282.84
2023-01-09T01:57:57.876Z,99282.66
2023-01-09T02:00:32.091Z,99284.00
2023-01-09T02:03:01.902Z,99281.72
2023-01-09T02:05:30.788Z,99275.34
2023-01-09T02:07:58.896Z,99281.91
2023-01-09T02:10:27.010Z,99282.97
2023-01-09T02:12:55.068Z,99281.91
2023-01-09T02:15:23.419Z,99272.75
2023-01-09T02:18:18.130Z,99277.84
2023-01-09T02:20:53.457Z,99285.78
2023-01-09T02:23:55.307Z,99284.53
2023-01-09T02:26:53.301Z,99281.94
2023-01-09T02:30:01.641Z,99286.50
2023-01-09T02:32:44.257Z,99286.94
2023-01-09T02:35:24.678Z,99287.31
2023-01-09T02:38:03.457Z,99290.47
2023-01-09T02:40:37.544Z,99289.94
2023-01-09T02:43:08.175Z,99291.06
2023-01-09T02:45:37.731Z,99292.00
2023-01-09T02:48:06.345Z,99292.75
2023-01-09T02:50:41.263Z,99282.31
2023-01-09T02:53:49.837Z,99285.16
2023-01-09T02:56:36.980Z,99287.44
2023-01-09T02:59:28.148Z,99294.09
2023-01-09T03:02:15.025Z,99289.28
2023-01-09T03:04:54.815Z,99285.66
2023-01-09T03:07:28.465Z,99279.63
2023-01-09T03:10:07.245Z,99279.91
2023-01-09T03:12:37.981Z,99279.19
2023-01-09T03:15:07.874Z,99291.47
2023-01-09T03:17:40.864Z,99283.75
2023-01-09T03:20:11.892Z,99281.88
2023-01-09T03:22:40.759Z,99292.59
2023-01-09T03:25:09.650Z,99289.16
2023-01-09T03:27:37.749Z,99296.88
2023-01-09T03:30:07.109Z,99282.78
2023-01-09T03:32:35.178Z,99289.75
2023-01-09T03:35:05.219Z,99291.00
2023-01-09T03:37:33.236Z,99297.34
2023-01-09T03:40:01.565Z,99294.00
2023-01-09T03:42:29.649Z,99288.69
2023-01-09T03:44:57.684Z,99292.84
2023-01-09T03:47:25.734Z,99291.38
2023-01-09T03:49:53.829Z,99289.81
2023-01-09T03:52:23.538Z,99295.97
2023-01-09T03:54:51.592Z,99278.97
2023-01-09T03:57:19.898Z,99296.56
2023-01-09T03:59:48.062Z,99284.28
2023-01-09T04:02:16.183Z,99296.03
2023-01-09T04:04:44.304Z,99295.09
2023-01-09T04:07:12.542Z,99294.13
2023-01-09T04:09:42.042Z,99300.41
2023-01-09T04:12:10.210Z,99302.34
2023-01-09T04:14:38.254Z,99302.56
2023-01-09T04:17:06.307Z,99293.41
2023-01-09T04:19:34.508Z,99305.69
2023-01-09T04:22:02.561Z,99296.50
2023-01-09T04:24:32.404Z,99293.28
2023-01-09T04:27:05.103Z,99299.31
2023-01-09T04:29:33.132Z,99307.94
2023-01-09T04:32:01.311Z,99303.78
2023-01-09T04:34:29.398Z,99308.53
2023-01-09T04:36:57.551Z,99312.63
2023-01-09T04:39:25.740Z,99313.44
2023-01-09T04:41:53.919Z,99311.75
2023-01-09T04:44:26.363Z,99311.59
2023-01-09T04:46:56.314Z,99320.44
2023-01-09T04:49:24.425Z,99317.06
2023-01-09T04:51:52.966Z,99320.44
2023-01-09T04:54:23.829Z,99321.44
2023-01-09T04:56:52.083Z,99320.31
2023-01-09T04:59:20.303Z,99321.03
2023-01-09T05:01:50.347Z,99310.38
2023-01-09T05:04:18.530Z,99324.09
2023-01-09T05:06:46.606Z,99321.50
2023-01-09T05:09:15.717Z,99320.56
2023-01-09T05:11:44.028Z,99313.41
2023-01-09T05:14:12.932Z,99325.31
2023-01-09T05:16:41.092Z,99320.81
2023-01-09T05:19:10.608Z,99323.16
2023-01-09T05:21:38.712Z,99317.94
2023-01-09T05:24:07.311Z,99313.44
2023-01-09T05:26:35.381Z,99313.44
2023-01-09T05:29:03.411Z,99322.00
2023-01-09T05:31:31.578Z,99316.19
2023-01-09T05:34:00.890Z,99320.56
2023-01-09T05:36:30.682Z,99320.56
2023-01-09T05:39:02.748Z,99311.63
2023-01-09T05:41:31.048Z,99306.09
2023-01-09T05:43:59.147Z,99314.72
2023-01-09T05:46:27.405Z,99306.28
2023-01-09T05:48:55.457Z,99305.44
2023-01-09T05:51:23.617Z,99308.16
2023-01-09T05:53:53.096Z,99303.59
2023-01-09T05:56:21.161Z,99301.81
2023-01-09T05:58:49.780Z,99302.56
2023-01-09T06:01:18.035Z,99298.38
2023-01-09T06:03:46.781Z,99305.16
2023-01-09T06:06:14.923Z,99308.31
2023-01-09T06:08:43.287Z,99303.00
2023-01-09T06:11:12.729Z,99293.72
2023-01-09T06:13:40.937Z,99296.94
2023-01-09T06:16:09.629Z,99300.19
2023-01-09T06:18:37.726Z,99296.44
2023-01-09T06:21:06.621Z,99288.63
2023-01-09T06:23:34.696Z,99297.69
2023-01-09T06:26:02.842Z,99291.88
2023-01-09T06:28:32.353Z,99291.66
2023-01-09T06:31:00.931Z,99296.56
2023-01-09T06:33:29.024Z,99299.06
2023-01-09T06:35:57.095Z,99295.97
2023-01-09T06:38:25.263Z,99292.53
2023-01-09T06:40:53.318Z,99289.94
2023-01-09T06:43:21.350Z,99291.50
2023-01-09T06:45:50.851Z,99293.69
2023-01-09T06:48:18.932Z,99288.91
2023-01-09T06:50:49.207Z,99289.81
2023-01-09T06:53:20.606Z,99280.88
2023-01-09T06:55:48.750Z,99290.47
2023-01-09T06:58:16.804Z,99287.53
2023-01-09T07:00:44.954Z,99280.47
2023-01-09T07:03:19.730Z,99292.56
2023-01-09T07:05:48.207Z,99291.31
2023-01-09T07:08:16.797Z,99279.00
2023-01-09T07:10:45.656Z,99284.97
2023-01-09T07:13:13.816Z,99285.06
2023-01-09T07:15:41.895Z,99284.03
2023-01-09T07:18:09.972Z,99287.34
2023-01-09T07:20:41.822Z,99295.06
2023-01-09T07:23:12.657Z,99296.84
2023-01-09T07:25:40.972Z,99288.91
2023-01-09T07:28:09.027Z,99294.84
2023-01-09T07:30:37.066Z,99287.25
2023-01-09T07:33:05.276Z,99294.03
2023-01-09T07:35:35.972Z,99296.63
2023-01-09T07:38:05.473Z,99294.03
2023-01-09T07:40:33.688Z,99300.47
2023-01-09T07:43:01.739Z,99306.13
2023-01-09T07:45:29.962Z,99297.38
2023-01-09T07:47:58.098Z,99308.63
2023-01-09T07:50:26.372Z,99305.91
2023-01-09T07:52:54.464Z,99303.09
2023-01-09T07:55:23.963Z,99300.38
2023-01-09T07:57:53.562Z,99301.34
2023-01-09T08:00:22.251Z,99311.94
2023-01-09T08:02:53.408Z,99304.88
2023-01-09T08:05:22.073Z,99307.59
2023-01-09T08:07:51.576Z,99312.81
2023-01-09T08:10:21.128Z,99314.47
2023-01-09T08:12:51.285Z,99316.13
2023-01-09T08:15:19.696Z,99311.00
2023-01-09T08:17:48.494Z,99323.13
2023-01-09T08:20:18.331Z,99318.72
2023-01-09T08:22:50.745Z,99334.19
2023-01-09T08:25:19.705Z,99335.72
2023-01-09T08:27:48.214Z,99334.69
2023-01-09T08:30:19.061Z,99340.53
2023-01-09T08:32:50.752Z,99345.22
2023-01-09T08:35:20.153Z,99351.06
2023-01-09T08:37:49.082Z,99357.75
2023-01-09T08:40:18.804Z,99341.47
2023-01-09T08:43:06.549Z,99350.16
2023-01-09T08:45:53.560Z,99356.94
2023-01-09T08:48:21.721Z,99362.16
2023-01-09T08:50:49.873Z,99350.16
2023-01-09T08:53:17.977Z,99355.97
2023-01-09T08:55:46.058Z,99356.19
2023-01-09T08:58:14.121Z,99362.03
2023-01-09T09:00:44.037Z,99359.31
2023-01-09T09:03:13.557Z,99364.22
2023-01-09T09:05:41.995Z,99370.19
2023-01-09T09:08:10.174Z,99365.69
2023-01-09T09:10:38.320Z,99374.25
2023-01-09T09:13:06.828Z,99383.53
2023-01-09T09:15:35.221Z,99393.53
2023-01-09T09:18:07.116Z,99393.53
2023-01-09T09:20:37.035Z,99399.38
2023-01-09T09:23:05.710Z,99387.47
2023-01-09T09:25:33.824Z,99390.94
2023-01-09T09:28:05.170Z,99398.94
2023-01-09T09:30:34.133Z,99408.34
2023-01-09T09:33:05.992Z,99402.19
2023-01-09T09:35:34.879Z,99416.91
2023-01-09T09:38:05.812Z,99417.47
2023-01-09T09:40:55.567Z,99425.81
2023-01-09T09:44:20.421Z,99429.25
2023-01-09T09:46:55.220Z,99428.22
2023-01-09T09:49:29.215Z,99437.00
2023-01-09T09:52:05.521Z,99439.06
2023-01-09T09:54:38.130Z,99453.69
2023-01-09T09:57:07.088Z,99449.94
2023-01-09T09:59:38.760Z,99462.16
2023-01-09T10:02:20.989Z,99476.97
2023-01-09T10:04:57.927Z,99477.50
2023-01-09T10:07:32.122Z,99479.16
2023-01-09T10:10:05.137Z,99487.81
2023-01-09T10:12:36.954Z,99482.31
2023-01-09T10:15:17.769Z,99487.94
2023-01-09T10:18:02.421Z,99493.34
2023-01-09T10:20:56.174Z,99506.41
2023-01-09T10:23:53.549Z,99505.47
2023-01-09T10:26:28.914Z,99502.34
2023-01-09T10:29:20.228Z,99516.75
2023-01-09T10:32:03.175Z,99514.16
2023-01-09T10:34:38.864Z,99515.63
2023-01-09T10:37:12.501Z,99516.97
2023-01-09T10:39:45.443Z,99529.09
2023-01-09T10:42:23.179Z,99542.03
2023-01-09T10:44:58.098Z,99538.50
2023-01-09T10:47:31.137Z,99539.81
2023-01-09T10:50:01.115Z,99559.38
2023-01-09T10:52:36.684Z,99548.09
2023-01-09T10:55:15.031Z,99561.47
2023-01-09T10:57:45.321Z,99557.06
2023-01-09T11:00:21.034Z,99562.28
2023-01-09T11:02:50.925Z,99570.03
2023-01-09T11:05:21.797Z,99566.06
2023-01-09T11:07:56.346Z,99582.34
2023-01-09T11:10:24.922Z,99578.81
2023-01-09T11:13:15.004Z,99580.47
2023-01-09T11:15:43.090Z,99579.44
2023-01-09T11:18:24.492Z,99585.38
2023-01-09T11:20:53.165Z,99587.59
2023-01-09T11:23:31.400Z,99591.13
2023-01-09T11:26:01.421Z,99595.63
2023-01-09T11:28:30.364Z,99594.19
2023-01-09T11:31:03.590Z,99600.34
2023-01-09T11:33:35.929Z,99599.28
2023-01-09T11:36:08.159Z,99602.34
2023-01-09T11:38:50.825Z,99611.63
2023-01-09T11:41:22.197Z,99606.06
2023-01-09T11:43:52.943Z,99619.03
2023-01-09T11:46:38.844Z,99621.00
2023-01-09T11:49:22.901Z,99621.22
2023-01-09T11:52:19.553Z,99620.91
2023-01-09T11:54:56.493Z,99629.13
2023-01-09T11:57:26.120Z,99621.81
2023-01-09T11:59:57.845Z,99629.53
2023-01-09T12:02:43.489Z,99635.81
2023-01-09T12:05:23.042Z,99642.41
2023-01-09T12:08:20.500Z,99632.56
2023-01-09T12:11:08.716Z,99641.84
2023-01-09T12:13:50.117Z,99639.66
2023-01-09T12:16:28.140Z,99635.03
2023-01-09T12:19:17.001Z,99637.31
2023-01-09T12:21:51.427Z,99646.91
2023-01-09T12:24:34.624Z,99651.50
2023-01-09T12:27:10.689Z,99650.31
2023-01-09T12:30:02.938Z,99659.63
2023-01-09T12:32:44.405Z,99648.91
2023-01-09T12:35:25.194Z,99655.59
2023-01-09T12:38:07.596Z,99658.44
2023-01-09T12:40:49.793Z,99655.41
2023-01-09T12:43:26.947Z,99667.16
2023-01-09T12:46:06.414Z,99662.63
2023-01-09T12:48:51.513Z,99671.66
2023-01-09T12:51:40.840Z,99674.16
2023-01-09T12:54:15.673Z,99684.41
2023-01-09T12:56:49.083Z,99693.94
2023-01-09T12:59:31.122Z,99699.16
2023-01-09T13:02:13.733Z,99691.81
2023-01-09T13:04:49.445Z,99697.16
2023-01-09T13:07:22.370Z,99696.31
2023-01-09T13:09:55.430Z,99701.00
2023-01-09T13:12:25.842Z,99707.94
2023-01-09T13:15:00.710Z,99708.75
2023-01-09T13:17:32.699Z,99718.28
2023-01-09T13:20:00.937Z,99726.13
2023-01-09T13:22:31.480Z,99726.41
2023-01-09T13:25:39.042Z,99730.09
2023-01-09T13:28:14.549Z,99731.22
2023-01-09T13:31:04.186Z,99737.63
2023-01-09T13:33:35.788Z,99742.75
2023-01-09T13:36:05.014Z,99758.78
2023-01-09T13:38:35.097Z,99752.09
2023-01-09T13:41:33.576Z,99759.78
2023-01-09T13:44:04.632Z,99767.22
2023-01-09T13:46:38.176Z,99775.47
2023-01-09T13:49:08.288Z,99777.38
2023-01-09T13:51:59.039Z,99775.06
2023-01-09T13:55:01.851Z,99784.84
2023-01-09T13:57:32.543Z,99781.47
2023-01-09T14:00:39.323Z,99788.38
2023-01-09T14:03:18.525Z,99796.16
2023-01-09T14:06:20.788Z,99808.09
2023-01-09T14:08:52.042Z,99807.38
2023-01-09T14:11:27.381Z,99814.47
2023-01-09T14:14:22.750Z,99817.28
2023-01-09T14:16:50.959Z,99832.69
2023-01-09T14:19:36.006Z,99831.84
2023-01-09T14:22:05.415Z,99834.06
2023-01-09T14:24:41.057Z,99850.06
2023-01-09T14:27:48.431Z,99858.97
2023-01-09T14:30:35.362Z,99867.31
2023-01-09T14:33:05.265Z,99871.63
2023-01-09T14:35:44.051Z,99875.78
2023-01-09T14:38:37.346Z,99878.91
2023-01-09T14:41:12.474Z,99884.97
2023-01-09T14:44:16.132Z,99890.00
2023-01-09T14:46:45.083Z,99902.88
2023-01-09T14:49:31.665Z,99906.09
2023-01-09T14:52:04.461Z,99907.44
2023-01-09T14:54:35.265Z,99919.47
2023-01-09T14:57:03.457Z,99923.13
2023-01-09T14:59:31.541Z,99932.19
2023-01-09T15:02:00.539Z,99946.13
2023-01-09T15:04:35.363Z,99951.53
2023-01-09T15:07:06.432Z,99952.88
2023-01-09T15:09:46.917Z,99969.09
2023-01-09T15:12:22.142Z,99971.81
2023-01-09T15:14:55.168Z,99979.47
2023-01-09T15:17:26.631Z,99985.81
2023-01-09T15:19:56.112Z,99985.00
2023-01-09T15:22:30.148Z,99997.00
2023-01-09T15:24:58.592Z,99995.72
2023-01-09T15:27:27.229Z,100008.91
2023-01-09T15:29:55.343Z,100006.19
2023-01-09T15:32:26.227Z,100001.72
2023-01-09T15:34:56.016Z,100012.28
2023-01-09T15:37:30.548Z,100009.00
2023-01-09T15:40:00.794Z,100018.69
2023-01-09T15:42:48.473Z,100022.44
2023-01-09T15:45:25.453Z,100031.41
2023-01-09T15:48:15.057Z,100033.09
2023-01-09T15:50:43.793Z,100038.78
2023-01-09T15:53:16.311Z,100038.16
2023-01-09T15:55:44.419Z,100045.31
2023-01-09T15:58:27.580Z,100054.38
2023-01-09T16:00:58.201Z,100063.16
2023-01-09T16:03:27.193Z,100063.44
2023-01-09T16:06:05.421Z,100067.44
2023-01-09T16:08:38.330Z,100073.59
2023-01-09T16:11:10.668Z,100077.25
2023-01-09T16:13:46.026Z,100082.81
2023-01-09T16:16:23.889Z,100088.91
2023-01-09T16:18:54.365Z,100092.63
2023-01-09T16:21:25.267Z,100092.25
2023-01-09T16:23:57.602Z,100101.81
2023-01-09T16:26:27.714Z,100104.03
2023-01-09T16:28:56.214Z,100106.41
2023-01-09T16:31:27.557Z,100111.03
2023-01-09T16:33:59.515Z,100113.06
2023-01-09T16:36:29.208Z,100114.09
2023-01-09T16:39:00.911Z,100114.19
2023-01-09T16:41:46.234Z,100123.03
2023-01-09T16:44:14.543Z,100121.25
2023-01-09T16:46:44.538Z,100135.56
2023-01-09T16:49:19.629Z,100131.00
2023-01-09T16:51:48.432Z,100143.56
2023-01-09T16:54:21.064Z,100145.25
2023-01-09T16:56:50.135Z,100143.66
2023-01-09T16:59:21.691Z,100146.59
2023-01-09T17:01:50.492Z,100152.09
2023-01-09T17:04:20.311Z,100155.53
2023-01-09T17:06:49.960Z,100163.53
2023-01-09T17:09:22.225Z,100166.56
2023-01-09T17:11:50.341Z,100174.47
2023-01-09T17:14:18.682Z,100178.88
2023-01-09T17:16:47.081Z,100184.41
2023-01-09T17:19:20.869Z,100186.94
2023-01-09T17:21:49.007Z,100186.34
2023-01-09T17:24:34.327Z,100194.09
2023-01-09T17:27:21.231Z,100194.84
2023-01-09T17:29:49.671Z,100188.69
2023-01-09T17:32:19.804Z,100199.13
2023-01-09T17:34:48.807Z,100208.47
2023-01-09T17:37:18.647Z,100207.72
2023-01-09T17:39:47.133Z,100211.25
2023-01-09T17:42:19.152Z,100214.69
2023-01-09T17:44:47.246Z,100219.91
2023-01-09T17:47:16.231Z,100232.22
2023-01-09T17:49:44.709Z,100225.22
2023-01-09T17:52:12.844Z,100241.63
2023-01-09T17:54:41.256Z,100243.13
2023-01-09T17:57:15.389Z,100245.75
2023-01-09T17:59:45.704Z,100252.84
2023-01-09T18:02:18.229Z,100259.75
2023-01-09T18:04:47.090Z,100261.34
2023-01-09T18:07:16.531Z,100259.41
2023-01-09T18:09:45.381Z,100269.84
2023-01-09T18:12:13.770Z,100272.34
2023-01-09T18:14:42.373Z,100289.88
2023-01-09T18:17:14.277Z,100294.22
2023-01-09T18:19:43.775Z,100305.44
2023-01-09T18:22:11.957Z,100302.84
2023-01-09T18:24:40.093Z,100307.97
2023-01-09T18:27:08.405Z,100305.44
2023-01-09T18:29:36.524Z,100324.41
2023-01-09T18:32:04.792Z,100328.94
2023-01-09T18:34:34.306Z,100334.31
2023-01-09T18:37:02.414Z,100337.94
2023-01-09T18:39:30.652Z,100350.81
2023-01-09T18:41:58.863Z,100350.72
2023-01-09T18:44:27.289Z,100354.25
2023-01-09T18:46:55.546Z,100363.03
2023-01-09T18:49:23.727Z,100364.84
2023-01-09T18:51:53.229Z,100384.56
2023-01-09T18:54:21.447Z,100387.41
2023-01-09T18:56:49.633Z,100388.25
2023-01-09T18:59:20.191Z,100393.47
2023-01-09T19:01:48.317Z,100391.72
2023-01-09T19:04:16.755Z,100397.03
2023-01-09T19:06:44.929Z,100401.22
2023-01-09T19:09:14.808Z,100411.66
2023-01-09T19:11:44.410Z,100409.91
2023-01-09T19:14:12.590Z,100416.88
2023-01-09T19:16:40.908Z,100424.78
2023-01-09T19:19:09.015Z,100422.88
2023-01-09T19:21:37.340Z,100440.22
2023-01-09T19:24:06.174Z,100441.28
2023-01-09T19:26:35.695Z,100452.41
2023-01-09T19:29:04.068Z,100450.72
2023-01-09T19:31:32.327Z,100454.25
2023-01-09T19:34:00.499Z,100464.69
2023-01-09T19:36:29.511Z,100478.56
2023-01-09T19:38:58.061Z,100488.25
2023-01-09T19:41:26.495Z,100484.72
2023-01-09T19:43:55.982Z,100497.75
2023-01-09T19:46:27.142Z,100506.59
2023-01-09T19:48:58.378Z,100509.88
2023-01-09T19:51:26.808Z,100515.25
2023-01-09T19:53:58.199Z,100512.13
2023-01-09T19:56:28.486Z,100526.06
2023-01-09T19:58:59.878Z,100522.56
2023-01-09T20:01:30.537Z,100526.00
2023-01-09T20:04:02.942Z,100537.22
2023-01-09T20:06:31.769Z,100550.19
2023-01-09T20:09:01.992Z,100539.91
2023-01-09T20:11:32.908Z,100543.34
2023-01-09T20:14:02.337Z,100556.22
2023-01-09T20:16:31.939Z,100558.09
2023-01-09T20:19:03.647Z,100560.78
2023-01-09T20:21:32.086Z,100563.31
2023-01-09T20:24:02.062Z,100575.34
2023-01-09T20:26:30.511Z,100587.41
2023-01-09T20:28:59.015Z,100585.09
2023-01-09T20:31:31.419Z,100595.69
2023-01-09T20:34:00.647Z,100601.59
2023-01-09T20:36:30.249Z,100593.06
2023-01-09T20:39:01.185Z,100598.28
2023-01-09T20:41:31.340Z,100601.97
2023-01-09T20:44:01.010Z,100603.94
2023-01-09T20:46:31.940Z,100611.94
2023-01-09T20:49:03.099Z,100622.50
2023-01-09T20:51:32.068Z,100615.59
2023-01-09T20:54:00.482Z,100625.13
2023-01-09T20:56:30.125Z,100624.63
2023-01-09T20:58:59.804Z,100629.22
2023-01-09T21:01:29.120Z,100635.19
2023-01-09T21:03:59.061Z,100638.78
2023-01-09T21:06:28.688Z,100656.19
2023-01-09T21:08:56.892Z,100657.19
2023-01-09T21:11:25.036Z,100662.75
2023-01-09T21:13:53.288Z,100670.72
2023-01-09T21:16:25.707Z,100668.41
2023-01-09T21:18:54.734Z,100665.72
2023-01-09T21:21:27.598Z,100673.59
2023-01-09T21:24:00.664Z,100676.34
2023-01-09T21:26:30.718Z,100674.69
2023-01-09T21:29:02.948Z,100678.19
2023-01-09T21:31:34.821Z,100687.19
2023-01-09T21:34:05.222Z,100691.47
2023-01-09T21:36:36.231Z,100700.25
2023-01-09T21:39:07.879Z,100709.09
2023-01-09T21:41:54.022Z,100712.47
2023-01-09T21:44:39.468Z,100717.81
2023-01-09T21:47:07.525Z,100720.59
2023-01-09T21:49:36.273Z,100717.31
2023-01-09T21:52:06.248Z,100728.69
2023-01-09T21:54:35.035Z,100731.63
2023-01-09T21:57:04.167Z,100740.41
2023-01-09T21:59:32.514Z,100743.16
2023-01-09T22:02:00.789Z,100735.28
2023-01-09T22:04:30.496Z,100749.16
2023-01-09T22:06:58.720Z,100762.22
2023-01-09T22:09:28.656Z,100767.34
2023-01-09T22:11:57.549Z,100766.41
2023-01-09T22:14:25.728Z,100761.53
2023-01-09T22:16:53.832Z,100765.03
2023-01-09T22:19:22.389Z,100760.81
2023-01-09T22:21:50.692Z,100768.69
2023-01-09T22:24:21.685Z,100783.84
2023-01-09T22:26:51.252Z,100789.81
2023-01-09T22:29:19.864Z,100794.41
2023-01-09T22:31:48.019Z,100794.50
2023-01-09T22:34:18.390Z,100803.25
2023-01-09T22:36:47.685Z,100805.88
2023-01-09T22:39:17.710Z,100807.78
2023-01-09T22:41:46.527Z,100807.94
2023-01-09T22:44:16.053Z,100821.84
2023-01-09T22:46:44.261Z,100826.25
2023-01-09T22:49:14.174Z,100839.19
2023-01-09T22:51:42.316Z,100833.97
2023-01-09T22:54:10.548Z,100849.69
2023-01-09T22:56:38.598Z,100857.53
2023-01-09T22:59:06.878Z,100866.19
2023-01-09T23:01:36.473Z,100867.97
2023-01-09T23:04:04.748Z,100874.94
2023-01-09T23:06:32.818Z,100888.91
2023-01-09T23:09:03.160Z,100894.84
2023-01-09T23:11:49.382Z,100895.03
2023-01-09T23:14:17.784Z,100897.44
2023-01-09T23:16:47.445Z,100907.84
2023-01-09T23:19:15.943Z,100914.78
2023-01-09T23:21:45.481Z,100900.84
2023-01-09T23:24:15.739Z,100902.56
2023-01-09T23:26:44.689Z,100910.31
2023-01-09T23:29:13.816Z,100910.19
2023-01-09T23:31:42.000Z,100917.22
2023-01-09T23:34:15.446Z,100919.81
2023-01-09T23:36:44.162Z,100928.47
2023-01-09T23:39:12.367Z,100942.38
2023-01-09T23:41:58.449Z,100942.25
2023-01-09T23:44:26.715Z,100946.81
2023-01-09T23:46:54.951Z,100955.47
2023-01-09T23:49:24.607Z,100962.50
2023-01-09T23:51:52.758Z,100958.25
2023-01-09T23:54:20.839Z,100965.13
2023-01-09T23:56:48.872Z,100966.06
2023-01-09T23:59:18.109Z,100974.84
